createdAt,value
2022-09-12T00:08:57.822Z,2.50
2022-09-12T00:19:00.925Z,2.53
2022-09-12T00:29:03.889Z,2.70
2022-09-12T00:39:06.991Z,3.00
2022-09-12T00:49:55.783Z,3.08
2022-09-12T01:00:13.623Z,3.08
2022-09-12T01:10:16.768Z,3.00
2022-09-12T01:20:38.204Z,3.08
2022-09-12T01:30:54.243Z,2.97
2022-09-12T01:41:12.473Z,3.17
2022-09-12T01:51:33.528Z,2.63
2022-09-12T02:01:42.329Z,3.72
2022-09-12T02:11:46.069Z,3.25
2022-09-12T02:21:58.805Z,3.90
2022-09-12T02:32:06.368Z,4.10
2022-09-12T02:42:08.912Z,3.97
2022-09-12T02:52:11.859Z,4.10
2022-09-12T03:02:35.995Z,4.07
2022-09-12T03:12:44.413Z,3.95
2022-09-12T03:22:55.192Z,3.65
2022-09-12T03:32:57.909Z,3.88
2022-09-12T03:43:00.887Z,4.65
2022-09-12T03:53:04.042Z,4.30
2022-09-12T04:03:06.849Z,4.40
2022-09-12T04:13:09.869Z,4.53
2022-09-12T04:23:12.885Z,4.43
2022-09-12T04:33:16.960Z,4.47
2022-09-12T04:43:24.997Z,6.30
2022-09-12T04:53:27.687Z,5.68
2022-09-12T05:03:35.907Z,4.95
2022-09-12T05:13:39.059Z,5.38
2022-09-12T05:23:41.949Z,4.00
2022-09-12T05:33:46.485Z,3.92
2022-09-12T05:43:54.082Z,5.20
2022-09-12T05:53:58.439Z,4.65
2022-09-12T06:04:03.651Z,3.88
2022-09-12T06:14:06.153Z,4.15
2022-09-12T06:24:08.894Z,4.05
2022-09-12T06:34:14.327Z,3.35
2022-09-12T06:44:19.498Z,4.05
2022-09-12T06:54:21.991Z,3.78
2022-09-12T07:04:25.066Z,3.35
2022-09-12T07:14:27.880Z,4.22
2022-09-12T07:24:30.866Z,3.80
2022-09-12T07:34:33.947Z,2.90
2022-09-12T07:44:37.127Z,3.28
2022-09-12T07:54:39.981Z,3.00
2022-09-12T08:14:45.890Z,2.35
2022-09-12T08:24:51.200Z,2.85
2022-09-12T08:34:53.857Z,3.35
2022-09-12T08:55:53.653Z,2.80
2022-09-12T09:06:13.644Z,2.58
2022-09-12T09:16:41.367Z,2.28
2022-09-12T09:26:49.396Z,2.40
2022-09-12T09:37:01.524Z,2.15
2022-09-12T09:47:04.161Z,1.95
2022-09-12T09:57:39.833Z,2.05
2022-09-12T10:07:50.907Z,2.40
2022-09-12T10:17:55.695Z,1.98
2022-09-12T10:28:01.023Z,2.10
2022-09-12T10:38:06.856Z,2.00
2022-09-12T10:48:29.555Z,2.97
2022-09-12T10:58:53.921Z,1.85
2022-09-12T11:09:14.590Z,2.17
2022-09-12T11:19:34.326Z,1.88
2022-09-12T11:29:47.031Z,1.80
2022-09-12T11:39:55.589Z,2.17
2022-09-12T11:50:00.441Z,1.58
2022-09-12T12:00:24.800Z,1.90
2022-09-12T12:10:32.992Z,1.60
2022-09-12T12:20:36.139Z,1.77
2022-09-12T12:30:38.384Z,2.00
2022-09-12T12:40:40.964Z,1.80
2022-09-12T12:50:44.068Z,2.30
2022-09-12T13:00:47.510Z,1.60
2022-09-12T13:10:58.126Z,1.90
2022-09-12T13:21:09.582Z,2.15
2022-09-12T13:31:27.016Z,2.20
2022-09-12T13:42:02.578Z,1.77
2022-09-12T13:52:28.985Z,1.95
2022-09-12T14:02:35.866Z,1.58
2022-09-12T14:12:41.603Z,1.92
2022-09-12T14:22:51.066Z,1.70
2022-09-12T14:33:13.144Z,1.65
2022-09-12T14:43:28.016Z,2.47
2022-09-12T14:53:38.185Z,2.20
2022-09-12T15:03:49.303Z,2.03
2022-09-12T15:13:52.608Z,1.95
2022-09-12T15:23:55.036Z,2.13
2022-09-12T15:44:01.385Z,2.42
2022-09-12T15:54:04.464Z,2.50
2022-09-12T16:04:21.945Z,2.38
2022-09-12T16:14:24.859Z,2.38
2022-09-12T16:34:30.848Z,2.38
2022-09-12T16:44:34.100Z,2.47
2022-09-12T16:54:36.871Z,2.60
2022-09-12T17:04:39.962Z,2.92
2022-09-12T17:14:42.925Z,2.72
2022-09-12T17:24:46.027Z,2.88
2022-09-12T17:34:49.226Z,3.22
2022-09-12T17:44:51.939Z,2.78
2022-09-12T17:54:54.925Z,2.38
2022-09-12T18:04:57.897Z,2.70
2022-09-12T18:15:01.273Z,2.75
2022-09-12T18:25:04.417Z,2.35
2022-09-12T18:35:07.624Z,2.97
2022-09-12T18:45:11.458Z,3.30
2022-09-12T18:55:14.271Z,2.80
2022-09-12T19:05:17.230Z,2.67
2022-09-12T19:15:20.795Z,2.80
2022-09-12T19:25:24.985Z,3.70
2022-09-12T19:35:46.770Z,3.33
2022-09-12T19:45:49.888Z,3.67
2022-09-12T19:55:53.411Z,3.30
2022-09-12T20:06:02.708Z,3.72
2022-09-12T20:16:22.796Z,3.80
2022-09-12T20:26:26.831Z,3.60
2022-09-12T20:36:29.523Z,3.90
2022-09-12T20:46:31.946Z,3.80
2022-09-12T20:56:36.463Z,3.53
2022-09-12T21:06:38.893Z,3.50
2022-09-12T21:16:41.225Z,3.90
2022-09-12T21:26:43.552Z,4.60
2022-09-12T21:36:45.803Z,4.53
2022-09-12T21:46:48.175Z,4.88
2022-09-12T21:56:50.519Z,4.75
2022-09-12T22:06:52.851Z,4.72
2022-09-12T22:16:55.219Z,4.38
2022-09-12T22:26:59.337Z,4.13
2022-09-12T22:37:01.597Z,4.20
2022-09-12T22:47:04.094Z,4.53
2022-09-12T22:57:07.282Z,4.95
2022-09-12T23:07:09.706Z,4.25
2022-09-12T23:17:13.125Z,4.40
2022-09-12T23:27:15.671Z,3.92
2022-09-12T23:37:17.984Z,4.30
2022-09-12T23:47:20.523Z,4.43
2022-09-12T23:57:23.042Z,4.28
